Time;durP1;ratioP1;P1;durP2;ratioP2;P2;SDS_P1;SDS_P2;PMS_P1;PMS_P2;Temp;Humidity;BMP_temperature;BMP_pressure;BME280_temperature;BME280_humidity;BME280_pressure;Samples;Min_cycle;Max_cycle;Signal;HPM_P1;HPM_P2
2022/08/07 00:01:21;;;;;;;6.40;5.30;;;11.80;99.90;;;;;;5053367;28;20140;-32
2022/08/07 00:03:46;;;;;;;8.10;6.10;;;11.70;99.90;;;;;;5053656;28;20037;-32
2022/08/07 00:06:13;;;;;;;6.45;5.78;;;11.70;99.90;;;;;;5053242;28;20028;-31
2022/08/07 00:08:39;;;;;;;7.47;5.80;;;11.70;99.90;;;;;;5055839;28;20078;-32
2022/08/07 00:11:05;;;;;;;8.23;6.40;;;11.70;99.90;;;;;;5048981;28;20126;-33
2022/08/07 00:13:32;;;;;;;8.45;6.00;;;11.60;99.90;;;;;;5053389;28;20036;-35
2022/08/07 00:15:58;;;;;;;6.90;6.13;;;11.60;99.90;;;;;;5036697;28;20053;-31
2022/08/07 00:18:27;;;;;;;7.53;5.80;;;11.60;99.90;;;;;;5036581;28;20045;-33
2022/08/07 00:20:58;;;;;;;6.97;6.07;;;11.50;99.90;;;;;;5053204;28;20048;-33
2022/08/07 00:23:24;;;;;;;9.23;5.75;;;11.50;99.90;;;;;;5043936;28;20037;-32
2022/08/07 00:25:50;;;;;;;6.55;5.60;;;11.50;99.90;;;;;;5050051;28;20106;-32
2022/08/07 00:28:16;;;;;;;8.68;6.43;;;11.50;99.90;;;;;;5053242;28;20201;-31
2022/08/07 00:30:42;;;;;;;8.68;6.22;;;11.50;99.90;;;;;;5058086;28;20110;-29
2022/08/07 00:33:08;;;;;;;6.10;5.32;;;11.40;99.90;;;;;;5053034;28;20037;-31
2022/08/07 00:35:34;;;;;;;6.88;5.38;;;11.40;99.90;;;;;;5053337;28;20039;-29
2022/08/07 00:38:00;;;;;;;8.30;5.80;;;11.40;99.90;;;;;;5053549;28;20029;-30
2022/08/07 00:40:27;;;;;;;8.55;6.22;;;11.40;99.90;;;;;;5059419;28;20531;-29
2022/08/07 00:42:53;;;;;;;9.30;5.50;;;11.40;99.90;;;;;;5059508;28;20072;-30
2022/08/07 00:45:20;;;;;;;8.23;5.80;;;11.30;99.90;;;;;;5052609;28;20071;-29
2022/08/07 00:47:46;;;;;;;6.95;5.45;;;11.40;99.90;;;;;;5053153;28;20037;-29
2022/08/07 00:50:12;;;;;;;8.50;5.90;;;11.30;99.90;;;;;;5045001;28;20044;-28
2022/08/07 00:52:38;;;;;;;8.60;5.63;;;11.30;99.90;;;;;;5058137;28;20533;-29
2022/08/07 00:55:05;;;;;;;8.35;5.88;;;11.30;99.90;;;;;;5060465;28;20039;-29
2022/08/07 00:57:31;;;;;;;7.93;6.00;;;11.30;99.90;;;;;;5052813;28;20036;-28
2022/08/07 00:59:57;;;;;;;8.52;5.93;;;11.20;99.90;;;;;;5052583;28;20052;-30
2022/08/07 01:02:24;;;;;;;7.43;5.60;;;11.20;99.90;;;;;;5058311;28;20036;-30
2022/08/07 01:04:51;;;;;;;6.50;5.68;;;11.20;99.90;;;;;;5058105;28;20047;-29
2022/08/07 01:07:20;;;;;;;7.03;5.55;;;11.20;99.90;;;;;;5052952;28;20266;-30
2022/08/07 01:09:46;;;;;;;8.25;5.80;;;11.20;99.90;;;;;;5054649;28;20036;-29
2022/08/07 01:12:14;;;;;;;7.15;5.93;;;11.10;99.90;;;;;;5081875;28;20037;-30
2022/08/07 01:14:40;;;;;;;6.05;5.10;;;11.10;99.90;;;;;;5056941;28;20493;-29
2022/08/07 01:17:06;;;;;;;7.05;5.78;;;11.20;99.90;;;;;;5052916;28;20058;-29
2022/08/07 01:19:33;;;;;;;6.20;5.43;;;11.10;99.90;;;;;;5068841;28;20075;-29
2022/08/07 01:22:00;;;;;;;7.53;5.85;;;11.10;99.90;;;;;;5057866;28;20040;-29
2022/08/07 01:24:27;;;;;;;6.10;5.53;;;11.10;99.90;;;;;;5053495;28;20083;-29
2022/08/07 01:26:53;;;;;;;6.95;5.75;;;11.10;99.90;;;;;;5064632;28;20067;-29
2022/08/07 01:29:23;;;;;;;9.25;5.60;;;11.10;99.90;;;;;;5056234;28;20115;-29
2022/08/07 01:31:51;;;;;;;8.05;5.80;;;11.10;99.90;;;;;;5055291;28;20124;-29
2022/08/07 01:34:17;;;;;;;7.15;5.88;;;11.00;99.90;;;;;;5053236;28;20107;-29
2022/08/07 01:36:44;;;;;;;8.63;6.20;;;11.00;99.90;;;;;;5056112;28;20034;-28
2022/08/07 01:39:10;;;;;;;9.82;6.78;;;11.10;99.90;;;;;;5055583;28;20044;-31
2022/08/07 01:41:37;;;;;;;8.20;6.03;;;11.10;99.90;;;;;;5073121;28;20044;-28
2022/08/07 01:44:04;;;;;;;8.50;6.28;;;11.00;99.90;;;;;;5060800;28;20041;-29
2022/08/07 01:46:30;;;;;;;9.68;6.70;;;11.10;99.90;;;;;;5062584;28;20048;-29
2022/08/07 01:48:56;;;;;;;7.47;5.65;;;11.10;99.90;;;;;;5051281;28;20041;-29
2022/08/07 01:51:23;;;;;;;10.13;6.55;;;11.20;99.90;;;;;;5055664;28;20044;-29
2022/08/07 01:53:52;;;;;;;8.80;6.80;;;11.20;99.90;;;;;;5056479;28;20036;-29
2022/08/07 01:57:00;;;;;;;10.95;6.97;;;11.20;99.90;;;;;;5055801;28;20033;-30
2022/08/07 01:59:32;;;;;;;8.07;6.90;;;11.30;99.90;;;;;;5054945;28;20079;-30
2022/08/07 02:02:04;;;;;;;9.85;6.72;;;11.20;99.90;;;;;;5060712;28;20039;-29
2022/08/07 02:04:53;;;;;;;8.98;6.32;;;11.30;99.90;;;;;;5055763;28;20044;-29
2022/08/07 02:07:22;;;;;;;7.47;6.53;;;11.30;99.90;;;;;;5066676;28;20032;-29
2022/08/07 02:09:51;;;;;;;8.20;6.80;;;11.40;99.90;;;;;;5067796;28;20120;-30
2022/08/07 02:12:19;;;;;;;7.60;6.47;;;11.40;99.90;;;;;;5034724;28;20041;-29
2022/08/07 02:14:50;;;;;;;10.95;6.90;;;11.40;99.90;;;;;;5055620;28;20044;-30
2022/08/07 02:17:17;;;;;;;7.00;6.30;;;11.50;99.90;;;;;;5050412;28;20508;-29
2022/08/07 02:19:47;;;;;;;10.00;7.15;;;11.50;99.90;;;;;;5049109;28;20040;-29
2022/08/07 02:22:15;;;;;;;10.88;8.20;;;11.40;99.90;;;;;;5062390;28;20296;-28
2022/08/07 02:24:45;;;;;;;9.50;7.60;;;11.40;99.90;;;;;;5055247;28;20551;-29
2022/08/07 02:27:14;;;;;;;10.32;6.97;;;11.40;99.90;;;;;;5054442;28;20283;-29
2022/08/07 02:29:40;;;;;;;8.40;6.38;;;11.30;99.90;;;;;;5055024;28;20366;-28
2022/08/07 02:32:09;;;;;;;7.68;6.85;;;11.30;99.90;;;;;;5054972;28;20397;-29
2022/08/07 02:34:36;;;;;;;8.45;6.88;;;11.30;99.90;;;;;;5056867;28;20508;-30
2022/08/07 02:37:04;;;;;;;9.23;7.13;;;11.20;99.90;;;;;;5055719;28;20036;-29
2022/08/07 02:39:32;;;;;;;8.57;6.93;;;11.20;99.90;;;;;;5063761;28;20044;-28
2022/08/07 02:41:59;;;;;;;9.10;7.13;;;11.20;99.90;;;;;;5054744;28;20033;-29
2022/08/07 02:44:27;;;;;;;8.05;6.68;;;11.10;99.90;;;;;;5054265;28;20036;-28
2022/08/07 02:46:55;;;;;;;9.18;7.20;;;11.10;99.90;;;;;;5057025;28;20033;-29
2022/08/07 02:49:21;;;;;;;10.60;7.30;;;11.10;99.90;;;;;;5054704;28;20119;-29
2022/08/07 02:51:48;;;;;;;8.77;7.05;;;11.00;99.90;;;;;;5055948;28;20607;-31
2022/08/07 02:54:15;;;;;;;10.57;7.70;;;11.00;99.90;;;;;;5046282;28;20508;-29
2022/08/07 02:56:42;;;;;;;8.32;6.95;;;10.90;99.90;;;;;;5054621;28;20045;-29
2022/08/07 02:59:13;;;;;;;9.27;7.38;;;10.90;99.90;;;;;;5060310;28;20094;-29
2022/08/07 03:01:41;;;;;;;7.97;6.65;;;10.80;99.90;;;;;;5054273;28;20040;-29
2022/08/07 03:04:09;;;;;;;11.48;7.95;;;10.80;99.90;;;;;;5055082;28;20485;-28
2022/08/07 03:06:36;;;;;;;9.48;7.50;;;10.80;99.90;;;;;;5043309;28;20045;-28
2022/08/07 03:09:04;;;;;;;12.00;7.90;;;10.80;99.90;;;;;;5054236;28;20071;-28
2022/08/07 03:11:33;;;;;;;9.57;8.02;;;10.70;99.90;;;;;;5060846;28;20044;-29
2022/08/07 03:14:02;;;;;;;9.48;7.38;;;10.70;99.90;;;;;;5055405;28;20055;-29
2022/08/07 03:16:32;;;;;;;10.35;6.90;;;10.70;99.90;;;;;;5048804;28;20041;-28
2022/08/07 03:18:59;;;;;;;10.38;7.57;;;10.60;99.90;;;;;;5070653;28;20040;-29
2022/08/07 03:21:26;;;;;;;8.18;7.03;;;10.60;99.90;;;;;;5066441;28;20049;-30
2022/08/07 03:23:58;;;;;;;8.43;7.53;;;10.60;99.90;;;;;;5053924;28;20079;-28
2022/08/07 03:26:30;;;;;;;10.82;7.47;;;10.50;99.90;;;;;;5054200;28;20474;-29
2022/08/07 03:28:59;;;;;;;8.30;7.15;;;10.50;99.90;;;;;;5050740;22;20048;-23
2022/08/07 03:31:26;;;;;;;11.63;7.80;;;10.50;99.90;;;;;;5033666;28;20048;-23
2022/08/07 03:33:56;;;;;;;8.82;7.45;;;10.50;99.90;;;;;;5034393;28;20030;-23
2022/08/07 03:36:25;;;;;;;8.93;6.93;;;10.40;99.90;;;;;;5032496;28;20037;-23
2022/08/07 03:38:53;;;;;;;8.57;7.20;;;10.40;99.90;;;;;;5045052;28;20122;-23
2022/08/07 03:41:19;;;;;;;9.05;7.00;;;10.40;99.90;;;;;;5031187;28;21189;-24
2022/08/07 03:43:45;;;;;;;9.82;8.20;;;10.30;99.90;;;;;;5030354;28;20041;-23
2022/08/07 03:46:13;;;;;;;11.45;7.57;;;10.30;99.90;;;;;;5038012;28;20053;-23
2022/08/07 03:48:40;;;;;;;11.20;7.75;;;10.30;99.90;;;;;;5038413;28;20496;-23
2022/08/07 03:51:07;;;;;;;9.90;6.78;;;10.30;99.90;;;;;;5037682;28;20037;-23
2022/08/07 03:53:33;;;;;;;11.02;7.25;;;10.20;99.90;;;;;;5030882;28;20037;-23
2022/08/07 03:56:00;;;;;;;9.55;7.68;;;10.30;99.90;;;;;;5045095;28;20040;-23
2022/08/07 03:58:28;;;;;;;12.35;7.88;;;10.30;99.90;;;;;;5035103;28;20558;-24
2022/08/07 04:00:56;;;;;;;12.25;7.80;;;10.20;99.90;;;;;;5040664;28;20103;-24
2022/08/07 04:03:22;;;;;;;9.63;6.72;;;10.20;99.90;;;;;;5017602;28;20045;-26
2022/08/07 04:05:48;;;;;;;10.50;7.55;;;10.20;99.90;;;;;;5031240;28;20046;-26
2022/08/07 04:08:15;;;;;;;9.18;7.20;;;10.20;99.90;;;;;;5032089;28;20351;-26
2022/08/07 04:10:42;;;;;;;9.23;6.88;;;10.20;99.90;;;;;;5037674;28;20042;-26
2022/08/07 04:13:13;;;;;;;8.30;7.03;;;10.20;99.90;;;;;;5041354;28;20038;-26
2022/08/07 04:15:39;;;;;;;10.52;8.05;;;10.20;99.90;;;;;;5040832;28;20486;-26
2022/08/07 04:18:04;;;;;;;10.38;8.02;;;10.20;99.90;;;;;;5034309;28;20033;-26
2022/08/07 04:20:30;;;;;;;9.07;7.05;;;10.10;99.90;;;;;;5032025;28;20140;-26
2022/08/07 04:22:58;;;;;;;9.55;7.10;;;10.10;99.90;;;;;;5039258;28;20447;-26
2022/08/07 04:25:25;;;;;;;10.90;7.90;;;10.20;99.90;;;;;;5042949;28;20120;-26
2022/08/07 04:27:51;;;;;;;8.63;6.88;;;10.20;99.90;;;;;;5037766;28;20048;-26
2022/08/07 04:30:17;;;;;;;11.02;7.85;;;10.20;99.90;;;;;;5031761;28;20526;-26
2022/08/07 04:32:44;;;;;;;8.20;6.70;;;10.20;99.90;;;;;;5032052;28;20119;-26
2022/08/07 04:35:11;;;;;;;10.15;7.15;;;10.20;99.90;;;;;;5041907;28;20041;-26
2022/08/07 04:37:38;;;;;;;10.32;7.22;;;10.20;99.90;;;;;;5040093;28;20504;-26
2022/08/07 04:40:04;;;;;;;8.55;7.10;;;10.20;99.90;;;;;;5031467;28;20046;-26
2022/08/07 04:42:33;;;;;;;10.15;7.53;;;10.20;99.90;;;;;;5040747;28;20402;-26
2022/08/07 04:45:01;;;;;;;9.13;6.78;;;10.30;99.90;;;;;;5039053;28;20044;-24
2022/08/07 04:47:55;;;;;;;10.32;7.97;;;10.30;99.90;;;;;;5035120;28;20494;-23
2022/08/07 04:50:40;;;;;;;9.88;7.13;;;10.30;99.90;;;;;;5030584;28;20483;-23
2022/08/07 04:53:09;;;;;;;8.95;7.45;;;10.30;99.90;;;;;;5043673;28;20040;-24
2022/08/07 04:55:51;;;;;;;8.73;6.78;;;10.40;99.90;;;;;;5036596;28;20042;-24
2022/08/07 04:58:45;;;;;;;11.18;8.25;;;10.40;99.90;;;;;;5030301;28;20029;-24
2022/08/07 05:01:13;;;;;;;;;;;10.40;99.90;;;;;;5010851;28;20052;-24
2022/08/07 05:03:42;;;;;;;10.00;7.75;;;10.50;99.90;;;;;;5040008;28;19924;-24
2022/08/07 05:06:17;;;;;;;10.32;7.38;;;10.50;99.90;;;;;;5039634;28;20116;-24
2022/08/07 05:09:14;;;;;;;9.82;7.38;;;10.50;99.90;;;;;;5038763;28;20549;-24
2022/08/07 05:11:46;;;;;;;10.40;7.68;;;10.60;99.90;;;;;;5022723;28;20056;-24
2022/08/07 05:14:21;;;;;;;10.23;7.72;;;10.60;99.90;;;;;;5023970;28;20063;-24
2022/08/07 05:16:49;;;;;;;12.63;9.70;;;10.70;99.90;;;;;;5039729;28;20034;-24
2022/08/07 05:19:19;;;;;;;10.60;7.82;;;10.70;99.90;;;;;;5015444;28;20116;-24
2022/08/07 05:21:53;;;;;;;13.30;8.38;;;10.80;99.90;;;;;;5040730;28;20044;-24
2022/08/07 05:24:21;;;;;;;14.30;8.43;;;10.80;99.90;;;;;;5028757;28;20049;-24
2022/08/07 05:26:51;;;;;;;12.55;9.40;;;10.80;99.90;;;;;;5033301;28;20048;-24
2022/08/07 05:29:18;;;;;;;10.73;8.23;;;10.90;99.90;;;;;;5033044;28;20506;-24
2022/08/07 05:31:46;;;;;;;10.68;8.48;;;11.00;99.90;;;;;;5040336;28;20513;-23
2022/08/07 05:34:15;;;;;;;12.10;9.43;;;11.00;99.90;;;;;;5049636;28;20041;-24
2022/08/07 05:36:50;;;;;;;12.95;9.15;;;11.10;99.90;;;;;;5046656;28;20037;-24
2022/08/07 05:39:20;;;;;;;11.52;9.18;;;11.20;99.90;;;;;;5038887;28;20454;-24
2022/08/07 05:41:49;;;;;;;13.10;9.63;;;11.20;99.90;;;;;;5022228;28;20044;-24
2022/08/07 05:44:18;;;;;;;11.50;8.45;;;11.30;99.90;;;;;;5020050;28;20560;-24
2022/08/07 05:46:47;;;;;;;12.35;9.32;;;11.30;99.90;;;;;;5034991;28;20371;-24
2022/08/07 05:49:13;;;;;;;15.93;10.73;;;11.40;99.90;;;;;;5039725;28;20037;-24
2022/08/07 05:51:42;;;;;;;11.40;8.82;;;11.50;99.90;;;;;;5035148;28;20103;-24
2022/08/07 05:54:08;;;;;;;12.13;9.57;;;11.60;99.90;;;;;;5035906;28;20033;-24
2022/08/07 05:56:35;;;;;;;12.90;10.05;;;11.70;99.90;;;;;;5027254;28;20041;-24
2022/08/07 05:59:04;;;;;;;12.95;9.50;;;11.80;99.90;;;;;;5035079;28;20077;-24
2022/08/07 06:01:33;;;;;;;11.65;8.50;;;11.90;99.90;;;;;;5015688;28;20387;-24
2022/08/07 06:04:00;;;;;;;12.57;9.65;;;12.00;99.90;;;;;;5023487;28;20034;-24
2022/08/07 06:06:26;;;;;;;14.02;9.90;;;12.10;99.90;;;;;;5034753;28;20123;-24
2022/08/07 06:08:53;;;;;;;15.35;11.00;;;12.20;99.90;;;;;;5036218;28;20128;-24
2022/08/07 06:11:19;;;;;;;13.75;10.80;;;12.30;99.90;;;;;;5041191;28;20046;-24
2022/08/07 06:13:45;;;;;;;12.77;10.13;;;12.40;99.90;;;;;;5044360;28;20466;-24
2022/08/07 06:16:13;;;;;;;17.13;12.82;;;12.50;99.90;;;;;;5037636;28;20402;-24
2022/08/07 06:18:40;;;;;;;15.23;12.13;;;12.60;99.90;;;;;;5029278;28;20391;-24
2022/08/07 06:21:06;;;;;;;18.00;13.50;;;12.80;99.90;;;;;;5026997;28;20041;-24
2022/08/07 06:23:33;;;;;;;18.42;13.38;;;12.90;99.90;;;;;;5032142;28;20045;-24
2022/08/07 06:25:59;;;;;;;16.00;12.43;;;13.10;99.90;;;;;;5031696;28;20449;-24
2022/08/07 06:28:25;;;;;;;18.92;14.13;;;13.20;99.90;;;;;;5039838;28;20044;-24
2022/08/07 06:30:51;;;;;;;16.38;12.57;;;13.30;99.90;;;;;;5038371;28;20038;-24
2022/08/07 06:33:18;;;;;;;19.00;14.25;;;13.40;99.90;;;;;;5036004;28;20044;-24
2022/08/07 06:35:44;;;;;;;16.60;12.80;;;13.40;99.90;;;;;;5042356;28;20518;-24
2022/08/07 06:38:10;;;;;;;17.33;12.45;;;13.60;99.90;;;;;;5040396;28;20384;-24
2022/08/07 06:40:45;;;;;;;17.15;12.80;;;13.70;99.90;;;;;;5039335;28;20402;-24
2022/08/07 06:43:14;;;;;;;16.08;12.48;;;13.80;99.90;;;;;;5019011;28;20037;-24
2022/08/07 06:45:40;;;;;;;15.70;12.52;;;13.90;99.90;;;;;;5032186;28;20053;-24
2022/08/07 06:48:06;;;;;;;17.83;12.15;;;14.00;99.90;;;;;;5033654;28;20092;-24
2022/08/07 06:50:35;;;;;;;19.75;13.85;;;14.10;99.90;;;;;;5030396;28;20099;-24
2022/08/07 06:53:02;;;;;;;16.60;13.00;;;14.20;99.90;;;;;;5034748;28;20034;-24
2022/08/07 06:55:30;;;;;;;17.15;11.80;;;14.30;99.90;;;;;;5019602;28;20051;-24
2022/08/07 06:57:59;;;;;;;15.63;12.23;;;14.40;99.90;;;;;;5034854;28;20033;-24
2022/08/07 07:00:29;;;;;;;14.88;11.23;;;14.50;99.90;;;;;;5039760;28;20529;-24
2022/08/07 07:02:56;;;;;;;14.30;10.93;;;14.60;99.90;;;;;;5031363;28;20073;-24
2022/08/07 07:05:22;;;;;;;12.15;10.18;;;14.80;99.90;;;;;;5038059;28;20033;-24
2022/08/07 07:07:48;;;;;;;14.50;10.18;;;15.00;99.90;;;;;;5029637;28;20037;-25
2022/08/07 07:10:14;;;;;;;13.40;9.90;;;15.20;99.90;;;;;;5033721;28;20072;-24
2022/08/07 07:12:52;;;;;;;12.68;9.35;;;15.30;99.90;;;;;;5031565;28;20064;-24
2022/08/07 07:15:23;;;;;;;13.10;10.35;;;15.40;99.90;;;;;;5044200;28;20037;-24
2022/08/07 07:17:57;;;;;;;11.85;9.48;;;15.50;99.90;;;;;;5041517;28;20120;-24
2022/08/07 07:20:33;;;;;;;14.82;9.38;;;15.60;99.90;;;;;;5043193;28;20076;-24
2022/08/07 07:23:00;;;;;;;12.20;10.10;;;15.70;99.90;;;;;;5034695;28;20099;-25
2022/08/07 07:25:26;;;;;;;11.43;9.20;;;15.90;99.90;;;;;;5034855;28;20042;-25
2022/08/07 07:27:55;;;;;;;12.73;9.73;;;16.00;99.90;;;;;;5034749;28;20463;-25
2022/08/07 07:30:29;;;;;;;10.32;9.07;;;16.20;99.90;;;;;;5026335;28;20120;-24
2022/08/07 07:32:58;;;;;;;12.80;9.98;;;16.30;99.90;;;;;;5034671;28;20045;-25
2022/08/07 07:35:25;;;;;;;13.32;9.27;;;16.50;99.90;;;;;;5029139;28;20048;-24
2022/08/07 07:37:53;;;;;;;10.70;8.60;;;16.70;99.90;;;;;;5035498;28;20041;-25
2022/08/07 07:40:21;;;;;;;10.85;8.88;;;17.00;99.90;;;;;;5043335;28;20041;-25
2022/08/07 07:42:52;;;;;;;13.15;9.75;;;17.30;99.90;;;;;;5042233;28;20543;-25
2022/08/07 07:45:22;;;;;;;9.95;8.65;;;17.50;99.90;;;;;;5026246;28;20502;-25
2022/08/07 07:47:51;;;;;;;9.90;8.90;;;17.80;99.90;;;;;;5036931;28;20299;-25
2022/08/07 07:50:20;;;;;;;10.35;9.02;;;18.00;99.90;;;;;;5033018;28;20436;-25
2022/08/07 07:52:47;;;;;;;12.00;9.35;;;18.20;99.90;;;;;;5042491;28;20073;-25
2022/08/07 07:55:16;;;;;;;9.05;8.15;;;18.40;99.90;;;;;;5033499;28;20413;-25
2022/08/07 07:57:43;;;;;;;9.02;8.13;;;18.60;99.90;;;;;;5038617;28;20486;-25
2022/08/07 08:00:11;;;;;;;9.20;8.25;;;18.70;99.90;;;;;;5026398;28;20033;-25
2022/08/07 08:02:38;;;;;;;8.40;7.60;;;18.90;99.90;;;;;;5042331;28;20044;-25
2022/08/07 08:05:06;;;;;;;9.45;8.50;;;19.00;99.90;;;;;;5031784;28;20048;-25
2022/08/07 08:07:34;;;;;;;10.10;7.72;;;19.20;99.90;;;;;;5034691;28;22034;-25
2022/08/07 08:10:01;;;;;;;10.27;7.75;;;19.30;99.90;;;;;;5030824;28;20126;-25
2022/08/07 08:12:27;;;;;;;9.02;6.95;;;19.60;99.90;;;;;;5030344;28;20044;-25
2022/08/07 08:14:53;;;;;;;7.88;7.07;;;19.70;99.90;;;;;;5042685;28;20037;-25
2022/08/07 08:17:22;;;;;;;8.95;7.63;;;19.80;99.90;;;;;;5032590;28;20079;-33
2022/08/07 08:19:51;;;;;;;9.27;7.43;;;19.90;99.90;;;;;;5038679;28;20037;-25
2022/08/07 08:27:53;;;;;;;8.10;6.57;;;20.60;99.90;;;;;;5043502;28;20728;-25
2022/08/07 08:30:19;;;;;;;10.02;7.43;;;20.70;99.90;;;;;;5038055;28;20056;-25
2022/08/07 08:32:58;;;;;;;8.40;7.20;;;20.80;99.90;;;;;;5037369;28;20179;-25
2022/08/07 08:35:26;;;;;;;8.70;7.40;;;21.10;99.90;;;;;;5035446;28;20041;-25
2022/08/07 08:38:01;;;;;;;7.95;7.10;;;21.30;99.90;;;;;;5043691;28;20048;-25
2022/08/07 08:40:34;;;;;;;7.97;7.18;;;21.50;99.90;;;;;;5045918;28;20124;-25
2022/08/07 08:43:22;;;;;;;8.25;7.38;;;21.70;99.90;;;;;;5041610;28;20041;-25
2022/08/07 08:46:06;;;;;;;6.95;6.25;;;21.70;97.00;;;;;;5037010;28;20045;-25
2022/08/07 08:49:05;;;;;;;6.97;6.28;;;21.90;98.00;;;;;;5041701;28;20068;-25
2022/08/07 08:51:42;;;;;;;7.70;6.63;;;22.00;94.00;;;;;;5034590;28;20049;-25
2022/08/07 08:54:23;;;;;;;7.38;6.53;;;22.20;95.20;;;;;;5025239;28;20048;-25
2022/08/07 08:56:51;;;;;;;7.97;6.68;;;22.30;92.50;;;;;;5016286;28;20372;-25
2022/08/07 08:59:39;;;;;;;6.10;5.50;;;22.40;94.60;;;;;;5036565;28;20394;-25
2022/08/07 09:02:40;;;;;;;6.68;5.88;;;22.40;76.40;;;;;;5048184;28;20073;-25
2022/08/07 09:05:30;;;;;;;5.80;5.30;;;22.60;91.90;;;;;;4992133;28;20045;-25
2022/08/07 09:07:58;;;;;;;5.85;5.28;;;22.60;83.30;;;;;;5035650;28;20495;-25
2022/08/07 09:10:30;;;;;;;8.18;6.07;;;22.70;89.00;;;;;;5036002;28;20045;-25
2022/08/07 09:13:09;;;;;;;6.13;5.43;;;22.90;90.90;;;;;;5036913;28;20033;-25
2022/08/07 09:15:35;;;;;;;6.00;5.40;;;23.10;78.20;;;;;;5049771;28;20087;-26
2022/08/07 09:18:14;;;;;;;6.15;5.55;;;23.10;85.20;;;;;;5034593;28;20041;-26
2022/08/07 09:21:17;;;;;;;7.60;4.97;;;23.20;77.40;;;;;;5041788;28;20496;-26
2022/08/07 09:24:24;;;;;;;6.80;6.07;;;23.20;64.50;;;;;;5044671;28;20047;-25
2022/08/07 09:27:21;;;;;;;5.53;5.03;;;23.40;80.30;;;;;;4985107;28;20448;-25
2022/08/07 09:29:47;;;;;;;5.80;5.20;;;23.70;65.20;;;;;;4989226;28;20428;-26
2022/08/07 09:32:22;;;;;;;5.45;4.95;;;23.80;75.60;;;;;;5017429;28;20130;-25
2022/08/07 09:35:07;;;;;;;5.70;4.80;;;24.00;71.10;;;;;;5037876;28;20091;-24
2022/08/07 09:37:59;;;;;;;4.90;4.50;;;24.30;61.70;;;;;;5029543;28;20045;-26
2022/08/07 09:41:05;;;;;;;5.63;5.00;;;24.50;58.00;;;;;;5039626;28;20060;-24
2022/08/07 09:43:51;;;;;;;4.47;4.18;;;24.70;58.70;;;;;;5037789;28;20067;-25
2022/08/07 09:46:55;;;;;;;5.00;4.50;;;25.10;67.80;;;;;;5030996;28;20515;-26
2022/08/07 09:49:56;;;;;;;4.70;4.20;;;25.20;59.70;;;;;;5021466;28;20077;-24
2022/08/07 09:52:35;;;;;;;4.40;4.00;;;25.30;54.10;;;;;;4997425;28;20126;-26
2022/08/07 09:55:28;;;;;;;5.05;3.97;;;25.60;60.60;;;;;;5045847;28;20060;-24
2022/08/07 09:58:22;;;;;;;4.63;4.22;;;25.90;60.20;;;;;;5037128;28;20044;-24
2022/08/07 10:01:14;;;;;;;4.47;4.07;;;26.30;55.00;;;;;;5042842;28;20052;-24
2022/08/07 10:04:04;;;;;;;4.07;3.40;;;26.40;54.90;;;;;;5036889;28;20398;-24
2022/08/07 10:06:29;;;;;;;5.00;3.10;;;26.50;48.20;;;;;;5032474;28;20045;-24
2022/08/07 10:09:10;;;;;;;3.20;2.90;;;26.50;54.90;;;;;;5039478;28;20046;-24
2022/08/07 10:11:48;;;;;;;3.67;3.38;;;26.80;50.10;;;;;;5040801;28;20120;-24
2022/08/07 10:14:51;;;;;;;3.42;3.03;;;26.50;49.20;;;;;;5043879;28;20032;-25
2022/08/07 10:17:32;;;;;;;4.83;3.10;;;26.40;46.70;;;;;;5024058;28;20068;-26
2022/08/07 10:20:25;;;;;;;3.42;3.13;;;26.10;51.30;;;;;;5046886;28;20509;-24
2022/08/07 10:23:06;;;;;;;2.97;2.75;;;26.20;50.00;;;;;;5044641;28;20080;-25
2022/08/07 10:25:53;;;;;;;3.20;3.00;;;26.60;51.20;;;;;;5041043;28;20038;-25
2022/08/07 10:28:40;;;;;;;3.53;3.22;;;26.80;49.80;;;;;;5027815;28;20073;-25
2022/08/07 10:31:27;;;;;;;2.92;2.72;;;26.60;48.10;;;;;;5038520;28;20038;-25
2022/08/07 10:34:20;;;;;;;3.63;2.70;;;26.40;49.30;;;;;;5047757;28;20087;-25
2022/08/07 10:37:14;;;;;;;3.95;3.00;;;26.80;49.20;;;;;;5028655;28;20030;-25
2022/08/07 10:39:55;;;;;;;3.35;3.10;;;26.80;48.30;;;;;;5052749;28;20034;-25
2022/08/07 10:42:36;;;;;;;4.03;2.95;;;27.00;48.80;;;;;;5028540;28;20067;-25
2022/08/07 10:45:16;;;;;;;4.30;3.03;;;27.30;49.30;;;;;;5055215;28;20036;-25
2022/08/07 10:48:05;;;;;;;3.92;3.08;;;27.20;45.30;;;;;;5035826;28;20147;-25
2022/08/07 10:50:43;;;;;;;3.53;3.00;;;27.20;45.90;;;;;;5033770;28;20045;-25
2022/08/07 10:53:12;;;;;;;4.93;3.22;;;26.40;46.10;;;;;;5040535;28;20037;-25
2022/08/07 10:56:03;;;;;;;3.38;3.08;;;26.30;47.90;;;;;;5016199;28;20125;-25
2022/08/07 10:58:46;;;;;;;3.97;3.30;;;26.90;48.90;;;;;;5032964;28;20041;-25
2022/08/07 11:01:26;;;;;;;3.88;3.58;;;27.10;47.80;;;;;;5042332;28;20371;-25
2022/08/07 11:04:02;;;;;;;3.00;2.70;;;27.10;47.00;;;;;;5040076;28;20034;-28
2022/08/07 11:06:50;;;;;;;3.15;2.80;;;27.20;47.30;;;;;;5034870;28;20065;-28
2022/08/07 11:09:21;;;;;;;3.55;2.92;;;27.50;45.10;;;;;;5026839;28;20037;-28
2022/08/07 11:12:05;;;;;;;3.40;2.80;;;27.30;45.90;;;;;;5036570;28;20048;-28
2022/08/07 11:14:45;;;;;;;2.97;2.67;;;27.00;45.60;;;;;;5030627;28;20051;-28
2022/08/07 11:17:29;;;;;;;3.55;3.17;;;27.40;45.70;;;;;;5042366;28;20044;-28
2022/08/07 11:20:02;;;;;;;3.67;2.90;;;27.70;45.80;;;;;;5031562;28;20049;-28
2022/08/07 11:22:48;;;;;;;2.80;2.60;;;27.80;45.70;;;;;;5029696;28;20502;-28
2022/08/07 11:25:38;;;;;;;3.50;2.83;;;28.30;45.60;;;;;;5034997;28;20445;-28
2022/08/07 11:28:20;;;;;;;3.20;3.00;;;28.80;43.50;;;;;;5057558;28;20032;-28
2022/08/07 11:30:50;;;;;;;2.78;2.58;;;28.80;43.40;;;;;;5030947;28;20041;-28
2022/08/07 11:33:26;;;;;;;2.78;2.58;;;28.50;43.50;;;;;;5027184;28;20040;-28
2022/08/07 11:36:05;;;;;;;2.95;2.65;;;28.80;44.00;;;;;;5033458;28;20195;-29
2022/08/07 11:38:42;;;;;;;6.40;2.58;;;29.20;44.70;;;;;;5013991;28;20090;-28
2022/08/07 11:41:20;;;;;;;3.28;2.60;;;29.70;44.80;;;;;;5030931;28;20043;-28
2022/08/07 11:44:17;;;;;;;2.88;2.60;;;29.90;41.90;;;;;;5035617;28;20033;-28
2022/08/07 11:47:09;;;;;;;3.13;2.40;;;29.60;41.60;;;;;;5033677;28;20120;-28
2022/08/07 11:49:51;;;;;;;2.70;2.20;;;29.40;43.10;;;;;;4996799;28;20504;-28
2022/08/07 11:52:41;;;;;;;2.83;2.00;;;29.80;41.10;;;;;;5031334;28;20097;-28
2022/08/07 11:55:45;;;;;;;2.50;2.15;;;29.80;39.60;;;;;;5036310;28;20052;-28
2022/08/07 11:58:19;;;;;;;2.55;1.90;;;29.50;40.10;;;;;;5034756;28;20406;-28
2022/08/07 12:00:51;;;;;;;3.65;2.40;;;29.30;39.60;;;;;;5032454;28;20502;-28
2022/08/07 12:03:26;;;;;;;2.90;2.30;;;29.50;40.10;;;;;;5034944;28;20063;-28
2022/08/07 12:06:19;;;;;;;2.38;2.17;;;29.70;40.70;;;;;;5037406;28;20163;-28
2022/08/07 12:08:54;;;;;;;2.40;2.13;;;29.90;40.00;;;;;;5032489;28;20067;-28
2022/08/07 12:11:43;;;;;;;2.75;1.92;;;30.30;41.20;;;;;;5049952;28;20056;-28
2022/08/07 12:14:23;;;;;;;2.65;2.13;;;30.20;39.60;;;;;;5036395;28;20060;-28
2022/08/07 12:17:02;;;;;;;2.30;2.10;;;30.40;40.60;;;;;;5031964;28;20131;-28
2022/08/07 12:19:45;;;;;;;3.63;2.28;;;30.30;39.30;;;;;;5030927;28;20049;-28
2022/08/07 12:23:03;;;;;;;2.13;1.95;;;30.50;39.50;;;;;;5042020;28;20045;-29
2022/08/07 12:25:56;;;;;;;3.20;2.00;;;30.50;38.80;;;;;;5040564;28;20041;-28
2022/08/07 12:28:46;;;;;;;2.22;1.90;;;30.70;39.70;;;;;;5027865;28;20487;-28
2022/08/07 12:31:35;;;;;;;6.82;2.10;;;31.00;38.90;;;;;;5021761;28;20091;-28
2022/08/07 12:34:02;;;;;;;1.88;1.77;;;31.00;38.20;;;;;;5016419;28;20044;-28
2022/08/07 12:36:31;;;;;;;2.55;1.95;;;30.70;38.70;;;;;;5041072;28;20048;-28
2022/08/07 12:38:58;;;;;;;2.38;2.20;;;31.10;38.80;;;;;;5046021;28;20064;-28
2022/08/07 12:41:26;;;;;;;1.70;1.60;;;31.20;38.30;;;;;;5044854;28;20047;-25
2022/08/07 12:43:55;;;;;;;1.92;1.75;;;31.30;38.30;;;;;;5033969;28;20045;-25
2022/08/07 12:46:42;;;;;;;1.77;1.67;;;30.70;37.20;;;;;;5030181;28;20076;-25
2022/08/07 12:49:32;;;;;;;1.80;1.50;;;30.80;39.70;;;;;;5038686;28;20038;-25
2022/08/07 12:52:59;;;;;;;2.45;1.73;;;31.30;37.80;;;;;;5019029;28;20486;-25
2022/08/07 12:55:36;;;;;;;2.47;1.20;;;31.80;39.70;;;;;;4929379;29;20134;-25
2022/08/07 12:58:05;;;;;;;1.60;1.50;;;32.10;38.10;;;;;;5018491;28;20056;-25
2022/08/07 13:01:18;;;;;;;1.70;1.40;;;32.30;37.00;;;;;;5036339;28;20045;-25
2022/08/07 13:04:09;;;;;;;1.58;1.48;;;32.10;34.00;;;;;;5025156;28;20506;-25
2022/08/07 13:06:44;;;;;;;1.77;1.67;;;31.70;33.90;;;;;;5030622;28;20410;-25
2022/08/07 13:09:22;;;;;;;1.77;1.20;;;31.40;35.00;;;;;;5034503;28;20056;-25
2022/08/07 13:11:52;;;;;;;1.38;1.27;;;30.80;34.70;;;;;;5047644;28;20096;-25
2022/08/07 13:14:24;;;;;;;6.00;1.40;;;30.80;36.00;;;;;;5028142;28;20086;-25
2022/08/07 13:17:10;;;;;;;1.48;1.13;;;31.20;36.30;;;;;;5045145;28;20036;-25
2022/08/07 13:19:48;;;;;;;1.40;1.30;;;31.90;36.60;;;;;;5027369;28;20117;-25
2022/08/07 13:22:34;;;;;;;2.47;1.30;;;32.50;34.60;;;;;;5050230;28;20037;-25